Terminal Aerodrome Forecast
Issued by NWS Raleigh/Durham, NC

Home | Current Version | Previous Version | Text Only | Print | Product List | Glossary On
Versions: 1 2 3 4 5 6 7 8 9 10 11 12 13 14 15 16 17 18 19 20 21 22 23 24 25 26 27 28 29 30 31 32 33 34 35 36
000
FTUS42 KRAH 170641 AAA
TAFRDU
TAF AMD
KRDU 170641Z 1707/1806 21004KT P6SM SCT011 BKN090 BKN240
     FM170800 00000KT 4SM BR OVC003
     FM171800 22010G16KT P6SM OVC012
     FM172000 23012G18KT P6SM BKN020
      TEMPO 1720/1724 SCT025=

USA.gov is the U.S. government's official web portal to all federal, state and local government web resources and services.